Time;durP1;ratioP1;P1;durP2;ratioP2;P2;SDS_P1;SDS_P2;PMS_P1;PMS_P2;Temp;Humidity;BMP_temperature;BMP_pressure;BME280_temperature;BME280_humidity;BME280_pressure;Samples;Min_cycle;Max_cycle;Signal;HPM_P1;HPM_P2
2023/07/02 00:01:12;;;;;;;9.65;5.30;;;;;;;;;;4979094;28;20111;-64
2023/07/02 00:03:39;;;;;;;12.73;5.15;;;;;;;;;;4982490;28;20037;-66
2023/07/02 00:06:06;;;;;;;9.27;4.60;;;;;;;;;;4980960;28;20057;-65
2023/07/02 00:08:33;;;;;;;12.50;6.00;;;;;;;;;;4982142;28;20493;-66
2023/07/02 00:10:59;;;;;;;11.73;6.75;;;;;;;;;;4983105;28;20144;-65
2023/07/02 00:13:26;;;;;;;11.63;6.65;;;;;;;;;;4982151;28;20038;-65
2023/07/02 00:15:53;;;;;;;9.43;6.05;;;;;;;;;;4986579;28;20069;-66
2023/07/02 00:18:19;;;;;;;17.85;7.75;;;;;;;;;;4983542;28;20042;-65
2023/07/02 00:20:46;;;;;;;13.13;7.18;;;;;;;;;;4985223;28;20050;-67
2023/07/02 00:23:12;;;;;;;13.85;7.95;;;;;;;;;;4983320;28;20035;-65
2023/07/02 00:25:39;;;;;;;14.15;9.20;;;;;;;;;;4979795;28;20057;-67
2023/07/02 00:28:06;;;;;;;16.42;9.40;;;;;;;;;;4979505;28;20795;-66
2023/07/02 00:30:32;;;;;;;15.57;10.45;;;;;;;;;;4981175;28;20062;-66
2023/07/02 00:32:59;;;;;;;19.80;10.27;;;;;;;;;;4976669;28;20533;-70
2023/07/02 00:35:26;;;;;;;16.48;9.45;;;;;;;;;;4968987;28;20046;-66
2023/07/02 00:37:52;;;;;;;18.77;9.65;;;;;;;;;;4983894;28;20133;-65
2023/07/02 00:40:19;;;;;;;18.05;11.27;;;;;;;;;;4983160;28;20038;-66
2023/07/02 00:42:46;;;;;;;14.80;9.38;;;;;;;;;;4984771;28;20579;-65
2023/07/02 00:45:12;;;;;;;14.38;8.00;;;;;;;;;;4984767;28;20143;-64
2023/07/02 00:47:39;;;;;;;23.52;9.82;;;;;;;;;;4986567;28;20045;-65
2023/07/02 00:50:06;;;;;;;14.93;9.98;;;;;;;;;;4986186;28;20771;-66
2023/07/02 00:52:32;;;;;;;17.23;10.77;;;;;;;;;;4985122;28;21696;-65
2023/07/02 00:54:59;;;;;;;20.15;9.93;;;;;;;;;;4970340;28;20125;-65
2023/07/02 00:57:29;;;;;;;22.30;10.73;;;;;;;;;;4982525;28;20039;-65
2023/07/02 00:59:57;;;;;;;14.80;9.27;;;;;;;;;;4979896;28;20619;-65
2023/07/02 01:02:25;;;;;;;17.75;9.52;;;;;;;;;;4982852;28;20076;-67
2023/07/02 01:05:21;;;;;;;11.88;6.70;;;;;;;;;;4946043;28;20603;-65
2023/07/02 01:07:48;;;;;;;24.90;9.45;;;;;;;;;;4945663;28;20052;-65
2023/07/02 01:10:14;;;;;;;24.63;9.40;;;;;;;;;;4948799;28;20069;-66
2023/07/02 01:12:41;;;;;;;20.08;9.57;;;;;;;;;;4946927;28;20240;-67
2023/07/02 01:15:09;;;;;;;17.73;9.05;;;;;;;;;;4922049;28;20171;-67
2023/07/02 01:17:41;;;;;;;17.50;7.63;;;;;;;;;;4927708;28;20075;-64
2023/07/02 01:20:09;;;;;;;15.13;7.20;;;;;;;;;;4942378;28;20211;-67
2023/07/02 01:22:36;;;;;;;14.20;8.27;;;;;;;;;;4927246;28;20035;-65
2023/07/02 01:25:03;;;;;;;14.30;8.05;;;;;;;;;;4944364;28;20120;-67
2023/07/02 01:27:30;;;;;;;17.35;7.97;;;;;;;;;;4943485;28;20051;-65
2023/07/02 01:29:57;;;;;;;11.85;5.85;;;;;;;;;;4945476;28;20833;-65
2023/07/02 01:32:24;;;;;;;11.32;6.20;;;;;;;;;;4945411;28;20039;-66
2023/07/02 01:34:53;;;;;;;11.80;7.13;;;;;;;;;;4944739;28;20077;-65
2023/07/02 01:37:20;;;;;;;12.63;5.28;;;;;;;;;;4972752;28;20215;-66
2023/07/02 01:39:46;;;;;;;10.88;4.47;;;;;;;;;;4984909;28;20045;-66
2023/07/02 01:42:17;;;;;;;9.27;4.45;;;;;;;;;;4981793;28;20038;-67
2023/07/02 01:44:45;;;;;;;10.75;4.43;;;;;;;;;;4983898;28;20042;-65
2023/07/02 01:47:12;;;;;;;6.35;3.40;;;;;;;;;;4987228;28;20050;-65
2023/07/02 01:49:38;;;;;;;9.27;3.47;;;;;;;;;;4985340;28;20037;-66
2023/07/02 01:52:05;;;;;;;7.72;3.38;;;;;;;;;;4988107;28;20133;-65
2023/07/02 01:54:33;;;;;;;6.95;2.85;;;;;;;;;;4986356;28;20077;-65
2023/07/02 01:57:00;;;;;;;6.65;3.05;;;;;;;;;;4986526;28;20134;-65
2023/07/02 01:59:27;;;;;;;7.82;3.05;;;;;;;;;;4984743;28;20030;-66
2023/07/02 02:01:54;;;;;;;6.55;3.03;;;;;;;;;;4986121;28;20619;-66
2023/07/02 02:04:23;;;;;;;7.72;2.83;;;;;;;;;;4985000;28;20512;-66
2023/07/02 02:06:51;;;;;;;5.90;2.30;;;;;;;;;;4987179;28;20041;-65
2023/07/02 02:09:18;;;;;;;6.75;2.38;;;;;;;;;;4983137;28;20049;-66
2023/07/02 02:11:46;;;;;;;6.47;2.40;;;;;;;;;;4987107;28;20115;-66
2023/07/02 02:14:13;;;;;;;4.95;2.20;;;;;;;;;;4984277;28;20034;-66
2023/07/02 02:16:40;;;;;;;7.72;2.70;;;;;;;;;;4988559;28;20111;-65
2023/07/02 02:19:07;;;;;;;6.75;2.17;;;;;;;;;;4989319;28;20457;-66
2023/07/02 02:21:33;;;;;;;3.78;1.63;;;;;;;;;;4988322;28;21343;-65
2023/07/02 02:24:00;;;;;;;4.95;1.55;;;;;;;;;;4986207;28;20450;-64
2023/07/02 02:26:27;;;;;;;5.57;2.30;;;;;;;;;;4982048;28;20083;-64
2023/07/02 02:28:53;;;;;;;4.85;2.20;;;;;;;;;;4987492;28;20049;-65
2023/07/02 02:31:20;;;;;;;5.90;1.95;;;;;;;;;;4985214;28;20465;-65
2023/07/02 02:33:47;;;;;;;8.45;2.38;;;;;;;;;;4982804;28;20047;-65
2023/07/02 02:36:13;;;;;;;4.07;1.83;;;;;;;;;;4986531;28;20152;-64
2023/07/02 02:38:40;;;;;;;4.15;1.83;;;;;;;;;;4984204;28;20053;-64
2023/07/02 02:41:08;;;;;;;4.45;1.75;;;;;;;;;;4983731;28;20109;-63
2023/07/02 02:43:35;;;;;;;5.07;2.28;;;;;;;;;;4985456;28;21185;-65
2023/07/02 02:46:01;;;;;;;3.10;1.20;;;;;;;;;;4982988;28;20052;-64
2023/07/02 02:48:28;;;;;;;4.82;1.75;;;;;;;;;;4984149;28;20390;-66
2023/07/02 02:50:54;;;;;;;4.70;1.40;;;;;;;;;;4984010;28;20046;-66
2023/07/02 02:53:21;;;;;;;6.63;2.20;;;;;;;;;;4988552;28;20038;-67
2023/07/02 02:55:48;;;;;;;4.15;1.55;;;;;;;;;;4989870;28;20109;-67
2023/07/02 02:58:14;;;;;;;5.15;1.55;;;;;;;;;;4990956;28;20398;-66
2023/07/02 03:00:45;;;;;;;3.45;1.27;;;;;;;;;;4985011;28;20040;-66
2023/07/02 03:03:13;;;;;;;4.32;1.80;;;;;;;;;;4989548;28;20137;-65
2023/07/02 03:05:40;;;;;;;3.55;1.67;;;;;;;;;;4983782;28;20081;-65
2023/07/02 03:08:06;;;;;;;3.20;1.38;;;;;;;;;;4984736;28;20391;-65
2023/07/02 03:10:33;;;;;;;6.03;1.92;;;;;;;;;;4982884;28;20628;-64
2023/07/02 03:13:00;;;;;;;4.93;1.95;;;;;;;;;;4984991;28;20121;-66
2023/07/02 03:15:26;;;;;;;4.30;1.50;;;;;;;;;;4988695;28;20091;-66
2023/07/02 03:17:53;;;;;;;4.13;1.90;;;;;;;;;;4991641;28;20135;-65
2023/07/02 03:20:20;;;;;;;4.32;1.50;;;;;;;;;;4994807;28;20259;-65
2023/07/02 03:22:46;;;;;;;4.57;2.00;;;;;;;;;;4967943;28;20047;-67
2023/07/02 03:25:13;;;;;;;3.58;1.73;;;;;;;;;;4970860;28;20050;-66
2023/07/02 03:27:59;;;;;;;3.97;1.70;;;;;;;;;;4961364;28;20500;-66
2023/07/02 03:30:26;;;;;;;2.88;1.13;;;;;;;;;;4951073;28;20182;-65
2023/07/02 03:32:53;;;;;;;4.00;1.95;;;;;;;;;;4960604;28;20038;-65
2023/07/02 03:35:19;;;;;;;4.03;1.80;;;;;;;;;;4956260;28;20144;-65
2023/07/02 03:37:46;;;;;;;4.03;1.67;;;;;;;;;;4958815;28;20039;-65
2023/07/02 03:40:13;;;;;;;4.00;2.00;;;;;;;;;;4949559;28;20042;-65
2023/07/02 03:42:39;;;;;;;4.28;1.73;;;;;;;;;;4960301;28;20054;-66
2023/07/02 03:45:06;;;;;;;5.00;1.60;;;;;;;;;;4959797;28;20058;-66
2023/07/02 03:47:33;;;;;;;5.85;2.25;;;;;;;;;;4960243;28;20130;-64
2023/07/02 03:50:00;;;;;;;3.85;1.90;;;;;;;;;;4944664;28;20522;-64
2023/07/02 03:52:26;;;;;;;4.18;1.60;;;;;;;;;;4949645;28;20042;-64
2023/07/02 03:54:53;;;;;;;3.88;1.60;;;;;;;;;;4957317;28;20146;-64
2023/07/02 03:57:20;;;;;;;4.07;1.70;;;;;;;;;;4949916;28;20069;-65
2023/07/02 04:00:07;;;;;;;4.22;1.75;;;;;;;;;;4943925;28;20039;-65
2023/07/02 04:02:34;;;;;;;3.42;1.60;;;;;;;;;;4947267;28;20055;-65
2023/07/02 04:05:01;;;;;;;4.15;1.63;;;;;;;;;;4947551;28;20177;-65
2023/07/02 04:07:28;;;;;;;3.92;1.65;;;;;;;;;;4947346;28;20042;-65
2023/07/02 04:09:54;;;;;;;4.13;1.40;;;;;;;;;;4944481;28;20077;-64
2023/07/02 04:12:21;;;;;;;5.05;1.88;;;;;;;;;;4944944;28;20042;-63
2023/07/02 04:14:48;;;;;;;4.60;1.70;;;;;;;;;;4942785;28;20050;-65
2023/07/02 04:17:14;;;;;;;4.18;1.70;;;;;;;;;;4946809;28;20051;-64
2023/07/02 04:19:41;;;;;;;3.72;1.30;;;;;;;;;;4943657;28;20136;-64
2023/07/02 04:22:08;;;;;;;3.72;1.52;;;;;;;;;;4943454;28;20046;-64
2023/07/02 04:24:34;;;;;;;5.88;1.40;;;;;;;;;;4944012;28;20046;-64
2023/07/02 04:27:01;;;;;;;3.20;1.38;;;;;;;;;;4946009;28;20045;-65
2023/07/02 04:29:27;;;;;;;4.85;1.77;;;;;;;;;;4949807;28;20094;-65
2023/07/02 04:31:54;;;;;;;4.63;1.60;;;;;;;;;;4950852;28;20038;-65
2023/07/02 04:34:21;;;;;;;3.80;1.55;;;;;;;;;;4948170;28;20031;-67
2023/07/02 04:36:48;;;;;;;4.60;1.80;;;;;;;;;;4949118;28;20069;-64
2023/07/02 04:39:15;;;;;;;3.42;1.38;;;;;;;;;;4977700;28;20534;-65
2023/07/02 04:41:41;;;;;;;3.63;1.50;;;;;;;;;;4960577;28;20907;-65
2023/07/02 04:44:08;;;;;;;6.07;1.85;;;;;;;;;;4959829;28;20034;-65
2023/07/02 04:46:35;;;;;;;4.63;1.65;;;;;;;;;;4963100;28;20046;-65
2023/07/02 04:49:02;;;;;;;3.63;1.30;;;;;;;;;;4962292;28;20039;-66
2023/07/02 04:51:28;;;;;;;3.88;1.52;;;;;;;;;;4962962;28;20593;-65
2023/07/02 04:53:55;;;;;;;3.47;1.42;;;;;;;;;;4960073;28;20046;-65
2023/07/02 04:56:21;;;;;;;4.03;1.65;;;;;;;;;;4973670;28;20050;-67
2023/07/02 04:58:48;;;;;;;4.60;1.42;;;;;;;;;;4961166;28;20038;-66
2023/07/02 05:01:15;;;;;;;4.30;1.70;;;;;;;;;;4960175;28;20042;-66
2023/07/02 05:03:41;;;;;;;3.35;1.27;;;;;;;;;;4970894;28;20057;-66
2023/07/02 05:06:08;;;;;;;4.32;1.67;;;;;;;;;;4963351;28;20133;-67
2023/07/02 05:08:54;;;;;;;5.03;1.80;;;;;;;;;;4961548;28;20048;-67
2023/07/02 05:11:21;;;;;;;4.38;1.30;;;;;;;;;;4940207;28;20098;-67
2023/07/02 05:13:48;;;;;;;4.00;1.40;;;;;;;;;;4936499;28;20054;-66
2023/07/02 05:16:15;;;;;;;7.13;1.55;;;;;;;;;;4926182;28;20041;-66
2023/07/02 05:18:41;;;;;;;3.67;1.30;;;;;;;;;;4934879;28;20054;-67
2023/07/02 05:21:08;;;;;;;3.20;1.35;;;;;;;;;;4941920;28;20043;-66
2023/07/02 05:23:35;;;;;;;4.18;1.38;;;;;;;;;;4943918;28;20050;-65
2023/07/02 05:26:02;;;;;;;3.90;1.30;;;;;;;;;;4946205;28;20058;-66
2023/07/02 05:28:29;;;;;;;3.83;1.30;;;;;;;;;;4945002;28;20304;-66
2023/07/02 05:30:55;;;;;;;3.47;1.48;;;;;;;;;;4948156;28;20093;-65
2023/07/02 05:33:22;;;;;;;3.15;1.30;;;;;;;;;;4935542;28;20981;-65
2023/07/02 05:35:49;;;;;;;4.20;1.50;;;;;;;;;;4944791;28;20534;-64
2023/07/02 05:38:17;;;;;;;3.67;1.48;;;;;;;;;;4937191;28;20043;-65
2023/07/02 05:40:43;;;;;;;4.15;1.58;;;;;;;;;;4939844;28;20038;-65
2023/07/02 05:43:10;;;;;;;8.45;1.40;;;;;;;;;;4965559;28;20142;-62
2023/07/02 05:45:37;;;;;;;4.00;1.30;;;;;;;;;;4971316;28;20527;-65
2023/07/02 05:48:03;;;;;;;5.63;1.40;;;;;;;;;;4970667;28;20046;-67
2023/07/02 05:50:33;;;;;;;5.10;1.48;;;;;;;;;;4970112;28;20046;-65
2023/07/02 05:53:00;;;;;;;3.88;1.23;;;;;;;;;;4968871;28;20106;-66
2023/07/02 05:55:26;;;;;;;3.65;1.40;;;;;;;;;;4967498;28;20133;-65
2023/07/02 05:57:53;;;;;;;3.47;1.30;;;;;;;;;;4967764;28;20027;-66
2023/07/02 06:00:20;;;;;;;7.57;1.33;;;;;;;;;;4965309;28;20042;-66
2023/07/02 06:02:47;;;;;;;5.00;1.20;;;;;;;;;;4965674;28;20077;-67
2023/07/02 06:05:14;;;;;;;5.80;1.48;;;;;;;;;;4967865;28;20073;-66
2023/07/02 06:07:41;;;;;;;3.42;1.30;;;;;;;;;;4973521;28;20039;-64
2023/07/02 06:10:07;;;;;;;6.40;1.50;;;;;;;;;;4981177;28;20058;-64
2023/07/02 06:12:34;;;;;;;4.18;1.02;;;;;;;;;;4979588;28;20038;-66
2023/07/02 06:15:01;;;;;;;3.50;1.35;;;;;;;;;;4979296;28;20168;-66
2023/07/02 06:17:47;;;;;;;3.50;1.40;;;;;;;;;;4959727;28;20102;-65
2023/07/02 06:20:14;;;;;;;3.25;1.13;;;;;;;;;;4956138;28;20400;-66
2023/07/02 06:22:42;;;;;;;4.93;1.67;;;;;;;;;;4955597;28;20616;-66
2023/07/02 06:25:08;;;;;;;3.95;1.45;;;;;;;;;;4951111;28;20051;-66
2023/07/02 06:27:35;;;;;;;4.60;1.20;;;;;;;;;;4970628;28;20042;-67
2023/07/02 06:30:02;;;;;;;3.33;1.35;;;;;;;;;;4973332;28;20185;-67
2023/07/02 06:32:28;;;;;;;4.05;1.25;;;;;;;;;;4953554;28;20039;-66
2023/07/02 06:34:55;;;;;;;4.38;1.40;;;;;;;;;;4957190;28;20539;-67
2023/07/02 06:37:22;;;;;;;3.92;1.38;;;;;;;;;;4969004;28;20043;-70
2023/07/02 06:40:08;;;;;;;3.17;1.23;;;;;;;;;;4965545;28;20039;-66
2023/07/02 06:42:37;;;;;;;5.15;1.48;;;;;;;;;;4943949;28;20042;-68
2023/07/02 06:45:05;;;;;;;8.07;1.40;;;;;;;;;;4943595;28;20066;-69
2023/07/02 06:47:31;;;;;;;6.13;1.58;;;;;;;;;;4924204;28;20048;-67
2023/07/02 06:49:59;;;;;;;2.83;1.02;;;;;;;;;;4957819;28;21043;-66
2023/07/02 06:52:26;;;;;;;4.20;1.10;;;;;;;;;;4953436;28;20526;-67
2023/07/02 06:54:52;;;;;;;4.63;1.30;;;;;;;;;;4931311;28;20194;-66
2023/07/02 06:57:19;;;;;;;3.03;1.20;;;;;;;;;;4955138;28;20399;-66
2023/07/02 06:59:45;;;;;;;3.17;1.23;;;;;;;;;;4951655;28;20043;-67
2023/07/02 07:02:15;;;;;;;3.58;1.27;;;;;;;;;;4952945;28;20042;-63
2023/07/02 07:04:42;;;;;;;3.80;1.30;;;;;;;;;;4954014;28;20053;-65
2023/07/02 07:07:08;;;;;;;4.13;1.10;;;;;;;;;;4953811;28;20046;-64
2023/07/02 07:09:35;;;;;;;3.38;1.23;;;;;;;;;;4944361;28;21021;-65
2023/07/02 07:12:02;;;;;;;4.57;1.30;;;;;;;;;;4956776;28;20043;-68
2023/07/02 07:14:28;;;;;;;3.50;1.20;;;;;;;;;;4979530;28;20089;-65
2023/07/02 07:16:55;;;;;;;4.22;1.00;;;;;;;;;;4986643;28;20374;-67
2023/07/02 07:19:22;;;;;;;3.88;1.40;;;;;;;;;;4982862;28;20133;-65
2023/07/02 07:21:48;;;;;;;4.15;1.30;;;;;;;;;;4964164;28;20110;-66
2023/07/02 07:24:15;;;;;;;3.97;1.40;;;;;;;;;;4953097;28;20046;-66
2023/07/02 07:26:41;;;;;;;3.95;1.38;;;;;;;;;;4976641;28;20077;-67
2023/07/02 07:29:08;;;;;;;4.10;1.30;;;;;;;;;;4978033;28;21108;-61
2023/07/02 07:31:35;;;;;;;3.67;1.38;;;;;;;;;;4974083;28;20700;-63
2023/07/02 07:34:02;;;;;;;4.47;1.40;;;;;;;;;;4975885;28;22024;-64
2023/07/02 07:36:28;;;;;;;5.22;1.10;;;;;;;;;;4976884;28;20089;-64
2023/07/02 07:38:55;;;;;;;3.63;1.45;;;;;;;;;;4978489;28;20106;-64
2023/07/02 07:41:21;;;;;;;3.05;1.27;;;;;;;;;;4981645;28;20366;-68
2023/07/02 07:43:48;;;;;;;4.65;1.38;;;;;;;;;;4980255;28;20074;-64
2023/07/02 07:46:15;;;;;;;3.50;1.20;;;;;;;;;;4977089;28;20046;-64
2023/07/02 07:48:41;;;;;;;3.25;1.10;;;;;;;;;;4982795;28;20127;-64
2023/07/02 07:51:08;;;;;;;3.42;1.40;;;;;;;;;;4986521;28;20039;-64
2023/07/02 07:53:39;;;;;;;3.70;1.42;;;;;;;;;;4980760;28;20045;-65
2023/07/02 07:56:06;;;;;;;3.33;1.30;;;;;;;;;;4982666;28;20117;-66
2023/07/02 07:58:32;;;;;;;3.03;1.23;;;;;;;;;;4978647;28;20039;-63
2023/07/02 08:00:59;;;;;;;2.40;1.00;;;;;;;;;;4977367;28;20070;-65
2023/07/02 08:03:25;;;;;;;3.17;1.30;;;;;;;;;;4976466;28;20042;-65
2023/07/02 08:05:52;;;;;;;3.63;1.17;;;;;;;;;;4978064;28;20077;-65
2023/07/02 08:08:19;;;;;;;5.82;1.30;;;;;;;;;;4980051;28;20144;-65
2023/07/02 08:10:46;;;;;;;3.58;1.30;;;;;;;;;;4975877;28;20137;-64
2023/07/02 08:13:14;;;;;;;3.45;1.20;;;;;;;;;;4976452;28;20105;-66
2023/07/02 08:15:41;;;;;;;2.72;1.10;;;;;;;;;;4977211;28;20046;-65
2023/07/02 08:18:08;;;;;;;3.08;1.15;;;;;;;;;;4977839;28;20033;-65
2023/07/02 08:20:35;;;;;;;3.30;1.27;;;;;;;;;;4969579;28;20099;-64
2023/07/02 08:23:02;;;;;;;3.38;1.23;;;;;;;;;;4980075;28;20046;-65
2023/07/02 08:25:28;;;;;;;5.22;1.20;;;;;;;;;;4976007;28;20228;-65
2023/07/02 08:27:55;;;;;;;3.40;1.25;;;;;;;;;;4976445;28;20047;-65
2023/07/02 08:30:22;;;;;;;3.28;1.00;;;;;;;;;;4960856;28;20074;-64
2023/07/02 08:32:49;;;;;;;3.30;1.30;;;;;;;;;;4974400;28;20045;-65
2023/07/02 08:35:18;;;;;;;3.00;0.93;;;;;;;;;;4976480;28;20080;-64
2023/07/02 08:37:44;;;;;;;3.28;1.30;;;;;;;;;;4971149;28;20034;-65
2023/07/02 08:40:20;;;;;;;3.03;1.10;;;;;;;;;;4974115;28;20042;-65
2023/07/02 08:42:47;;;;;;;3.42;1.30;;;;;;;;;;4963742;28;20039;-65
2023/07/02 08:45:16;;;;;;;5.03;1.30;;;;;;;;;;4972439;28;20042;-65
2023/07/02 08:47:43;;;;;;;3.33;1.02;;;;;;;;;;4977347;28;20067;-65
2023/07/02 08:50:11;;;;;;;3.10;1.17;;;;;;;;;;4979708;28;20034;-65
2023/07/02 08:52:37;;;;;;;3.30;1.17;;;;;;;;;;4965251;28;20141;-65
2023/07/02 08:55:05;;;;;;;2.65;0.95;;;;;;;;;;4986299;28;20046;-65
2023/07/02 08:57:31;;;;;;;3.08;1.20;;;;;;;;;;4965817;28;20042;-65
2023/07/02 08:59:59;;;;;;;3.97;1.50;;;;;;;;;;4979001;28;20042;-65
2023/07/02 09:02:35;;;;;;;3.03;1.20;;;;;;;;;;4986737;28;20534;-64
2023/07/02 09:05:02;;;;;;;3.00;0.98;;;;;;;;;;4971778;28;20058;-65
2023/07/02 09:07:28;;;;;;;3.30;1.10;;;;;;;;;;4991729;28;20050;-65
2023/07/02 09:09:55;;;;;;;3.63;1.10;;;;;;;;;;4978159;28;20125;-65
2023/07/02 09:12:25;;;;;;;2.67;0.80;;;;;;;;;;4979771;28;20135;-68
2023/07/02 09:14:56;;;;;;;2.58;0.93;;;;;;;;;;4979620;28;20034;-65
2023/07/02 09:17:27;;;;;;;3.28;1.00;;;;;;;;;;4978686;28;20038;-64
2023/07/02 09:19:54;;;;;;;3.92;0.90;;;;;;;;;;4977831;28;20034;-65
2023/07/02 09:22:21;;;;;;;1.95;0.73;;;;;;;;;;4979559;28;20556;-64
2023/07/02 09:24:57;;;;;;;2.92;0.98;;;;;;;;;;4975254;28;20065;-65
2023/07/02 09:27:37;;;;;;;3.25;1.00;;;;;;;;;;4976764;28;20117;-64
2023/07/02 09:30:12;;;;;;;2.60;0.90;;;;;;;;;;4974206;28;20046;-63
2023/07/02 09:32:39;;;;;;;2.10;0.70;;;;;;;;;;4967070;28;20066;-65
2023/07/02 09:35:05;;;;;;;2.88;0.82;;;;;;;;;;4975602;28;20136;-65
2023/07/02 09:37:32;;;;;;;4.53;1.00;;;;;;;;;;4972204;28;20053;-64
2023/07/02 09:40:00;;;;;;;2.22;0.80;;;;;;;;;;4976301;28;20628;-64
2023/07/02 09:42:26;;;;;;;3.10;1.00;;;;;;;;;;4968901;28;20074;-65
2023/07/02 09:44:54;;;;;;;2.90;0.90;;;;;;;;;;4972157;28;21000;-64
2023/07/02 09:47:22;;;;;;;3.33;1.00;;;;;;;;;;4975280;28;20133;-64
2023/07/02 09:49:50;;;;;;;3.08;1.00;;;;;;;;;;4977672;28;20042;-65
2023/07/02 09:52:18;;;;;;;3.22;0.95;;;;;;;;;;4977723;28;20165;-65
2023/07/02 09:54:45;;;;;;;3.45;1.00;;;;;;;;;;4976243;28;20046;-65
2023/07/02 09:57:12;;;;;;;1.83;0.68;;;;;;;;;;4976053;28;20045;-65
2023/07/02 09:59:39;;;;;;;2.80;0.93;;;;;;;;;;4978910;28;20539;-65
2023/07/02 10:02:06;;;;;;;3.15;0.80;;;;;;;;;;4977882;28;20047;-65
2023/07/02 10:04:46;;;;;;;2.58;0.95;;;;;;;;;;4973915;28;20364;-66
2023/07/02 10:07:13;;;;;;;3.10;0.90;;;;;;;;;;4971238;28;20566;-65
2023/07/02 10:09:41;;;;;;;2.67;0.75;;;;;;;;;;4979614;28;20173;-64
2023/07/02 10:12:18;;;;;;;2.83;0.85;;;;;;;;;;4977782;28;20039;-66
2023/07/02 10:14:45;;;;;;;2.83;0.90;;;;;;;;;;4976500;28;20034;-66
2023/07/02 10:17:12;;;;;;;2.50;0.80;;;;;;;;;;4974926;28;20093;-68
2023/07/02 10:19:38;;;;;;;3.22;1.00;;;;;;;;;;4975675;28;20071;-64
2023/07/02 10:22:07;;;;;;;3.25;1.05;;;;;;;;;;4971510;28;20288;-64
2023/07/02 10:24:34;;;;;;;3.63;1.05;;;;;;;;;;4975756;28;20072;-64
2023/07/02 10:27:03;;;;;;;2.25;0.70;;;;;;;;;;4964776;28;20039;-64
2023/07/02 10:29:29;;;;;;;2.03;0.85;;;;;;;;;;4990987;28;20046;-63
2023/07/02 10:31:57;;;;;;;2.63;0.90;;;;;;;;;;4996732;28;20065;-63
2023/07/02 10:34:36;;;;;;;2.03;0.70;;;;;;;;;;4993208;28;20093;-64
2023/07/02 10:37:03;;;;;;;2.20;0.60;;;;;;;;;;4997172;28;20510;-64
2023/07/02 10:39:30;;;;;;;2.47;0.70;;;;;;;;;;4999050;28;20075;-64
2023/07/02 10:42:06;;;;;;;2.38;0.73;;;;;;;;;;4997894;28;20385;-64
2023/07/02 10:44:33;;;;;;;2.65;0.90;;;;;;;;;;4997651;28;20045;-64
2023/07/02 10:47:00;;;;;;;2.60;0.80;;;;;;;;;;4999517;28;20636;-64
2023/07/02 10:49:33;;;;;;;2.70;0.77;;;;;;;;;;5001937;28;20121;-65
2023/07/02 10:52:04;;;;;;;2.95;1.00;;;;;;;;;;5000821;28;20205;-64
2023/07/02 10:54:43;;;;;;;2.50;0.70;;;;;;;;;;4997599;28;20144;-65
2023/07/02 10:57:11;;;;;;;4.75;0.73;;;;;;;;;;4994856;28;20052;-65
2023/07/02 10:59:38;;;;;;;2.38;0.70;;;;;;;;;;4989848;28;20042;-66
2023/07/02 11:02:06;;;;;;;1.38;0.50;;;;;;;;;;4994320;28;20038;-64
2023/07/02 11:04:33;;;;;;;1.15;0.40;;;;;;;;;;4991877;28;20039;-64
2023/07/02 11:07:01;;;;;;;2.97;0.45;;;;;;;;;;4995750;28;20038;-65
2023/07/02 11:09:27;;;;;;;1.42;0.57;;;;;;;;;;4993446;28;20034;-65
2023/07/02 11:11:55;;;;;;;1.85;0.60;;;;;;;;;;4993181;28;20462;-65
2023/07/02 11:14:34;;;;;;;2.00;0.60;;;;;;;;;;4994673;28;20034;-66
2023/07/02 11:17:05;;;;;;;1.02;0.45;;;;;;;;;;4995015;28;20038;-65
2023/07/02 11:19:32;;;;;;;1.27;0.50;;;;;;;;;;4994529;28;20100;-65
2023/07/02 11:21:59;;;;;;;1.85;0.75;;;;;;;;;;4997742;28;20092;-63
2023/07/02 11:24:32;;;;;;;1.08;0.40;;;;;;;;;;4997227;28;20754;-64
2023/07/02 11:27:22;;;;;;;0.80;0.30;;;;;;;;;;4959933;28;20111;-65
2023/07/02 11:29:59;;;;;;;2.28;0.60;;;;;;;;;;4958517;28;20050;-65
2023/07/02 11:32:27;;;;;;;0.93;0.40;;;;;;;;;;4937543;28;20045;-66
2023/07/02 11:34:55;;;;;;;1.42;0.45;;;;;;;;;;4959064;28;20579;-62
2023/07/02 11:37:22;;;;;;;2.05;0.57;;;;;;;;;;4957410;28;20047;-65
2023/07/02 11:39:49;;;;;;;2.13;0.55;;;;;;;;;;4958986;28;20042;-64
2023/07/02 11:42:16;;;;;;;1.55;0.50;;;;;;;;;;4960012;28;20043;-64
2023/07/02 11:45:02;;;;;;;2.03;0.57;;;;;;;;;;4905429;29;20040;-65
2023/07/02 11:47:29;;;;;;;2.03;0.63;;;;;;;;;;4904571;29;20621;-64
2023/07/02 11:49:55;;;;;;;2.70;0.60;;;;;;;;;;4904261;29;20134;-64
2023/07/02 11:52:22;;;;;;;2.10;0.70;;;;;;;;;;4896582;29;20032;-65
2023/07/02 11:54:50;;;;;;;2.42;0.60;;;;;;;;;;4905762;29;20564;-65
2023/07/02 11:57:17;;;;;;;2.10;0.60;;;;;;;;;;4906142;29;20522;-64
2023/07/02 11:59:44;;;;;;;1.58;0.50;;;;;;;;;;4933193;28;20115;-64
2023/07/02 12:02:10;;;;;;;1.55;0.50;;;;;;;;;;4930910;28;20046;-64
2023/07/02 12:04:37;;;;;;;1.90;0.60;;;;;;;;;;4930702;28;20298;-64
2023/07/02 12:07:04;;;;;;;2.10;0.70;;;;;;;;;;4931261;28;20083;-64
2023/07/02 12:09:30;;;;;;;1.90;0.60;;;;;;;;;;4923329;28;20081;-64
2023/07/02 12:11:57;;;;;;;0.98;0.50;;;;;;;;;;4932431;28;20489;-63
2023/07/02 12:14:23;;;;;;;1.50;0.50;;;;;;;;;;4932489;28;20047;-64
2023/07/02 12:16:50;;;;;;;1.83;0.50;;;;;;;;;;4932369;29;20119;-64
2023/07/02 12:19:17;;;;;;;1.23;0.45;;;;;;;;;;4933864;28;20173;-64
2023/07/02 12:21:43;;;;;;;1.45;0.50;;;;;;;;;;4944126;28;20078;-64
2023/07/02 12:24:10;;;;;;;1.25;0.50;;;;;;;;;;4996207;28;20031;-66
2023/07/02 12:26:38;;;;;;;2.85;0.70;;;;;;;;;;4994839;28;20129;-66
2023/07/02 12:29:04;;;;;;;1.50;0.43;;;;;;;;;;4995760;28;20046;-65
2023/07/02 12:31:31;;;;;;;1.63;0.50;;;;;;;;;;4994770;28;20073;-64
2023/07/02 12:33:58;;;;;;;1.15;0.43;;;;;;;;;;5000755;28;20041;-64
2023/07/02 12:36:24;;;;;;;1.35;0.47;;;;;;;;;;4988881;28;20046;-65
2023/07/02 12:38:51;;;;;;;1.52;0.50;;;;;;;;;;4994158;28;20104;-66
2023/07/02 12:41:18;;;;;;;2.42;0.63;;;;;;;;;;4996686;28;20045;-65
2023/07/02 12:43:44;;;;;;;1.65;0.50;;;;;;;;;;4977292;28;20125;-63
2023/07/02 12:46:11;;;;;;;1.85;0.55;;;;;;;;;;4992044;28;20521;-64
2023/07/02 12:48:38;;;;;;;1.90;0.60;;;;;;;;;;4993329;28;20453;-65
2023/07/02 12:51:04;;;;;;;2.75;0.45;;;;;;;;;;4995334;28;20114;-63
2023/07/02 12:53:31;;;;;;;1.92;0.60;;;;;;;;;;4996964;28;20124;-64
2023/07/02 12:55:57;;;;;;;3.42;0.70;;;;;;;;;;4995606;28;20053;-67
2023/07/02 12:58:24;;;;;;;2.05;0.50;;;;;;;;;;4996348;28;21007;-65
2023/07/02 13:00:51;;;;;;;1.20;0.47;;;;;;;;;;5002711;28;20045;-64
2023/07/02 13:03:18;;;;;;;2.00;0.50;;;;;;;;;;5002302;28;20560;-65
2023/07/02 13:05:45;;;;;;;1.27;0.40;;;;;;;;;;4997330;28;20426;-63
2023/07/02 13:08:11;;;;;;;1.95;0.63;;;;;;;;;;4994546;28;20043;-63
2023/07/02 13:10:39;;;;;;;1.65;0.63;;;;;;;;;;4991030;28;20041;-65
2023/07/02 13:13:06;;;;;;;2.75;0.73;;;;;;;;;;4994804;28;20464;-65
2023/07/02 13:15:34;;;;;;;2.13;0.60;;;;;;;;;;4993587;28;20046;-64
2023/07/02 13:18:01;;;;;;;3.70;0.60;;;;;;;;;;4995225;28;20069;-64
2023/07/02 13:20:27;;;;;;;1.55;0.43;;;;;;;;;;4981129;28;20038;-67
2023/07/02 13:22:54;;;;;;;2.13;0.60;;;;;;;;;;4991918;28;20046;-64
2023/07/02 13:25:21;;;;;;;2.10;0.60;;;;;;;;;;4993451;28;20933;-64
2023/07/02 13:27:47;;;;;;;1.45;0.50;;;;;;;;;;4990779;28;20037;-64
2023/07/02 13:30:14;;;;;;;1.65;0.57;;;;;;;;;;4994951;28;20065;-63
2023/07/02 13:32:41;;;;;;;1.63;0.50;;;;;;;;;;4998037;28;20145;-60
2023/07/02 13:35:07;;;;;;;1.70;0.50;;;;;;;;;;4990308;28;20069;-66
2023/07/02 13:37:34;;;;;;;1.55;0.52;;;;;;;;;;4994349;28;20042;-65
2023/07/02 13:40:01;;;;;;;1.08;0.40;;;;;;;;;;4995281;28;20528;-65
2023/07/02 13:42:28;;;;;;;1.70;0.57;;;;;;;;;;4994569;28;20061;-64
2023/07/02 13:44:54;;;;;;;1.70;0.50;;;;;;;;;;4992185;28;23278;-64
2023/07/02 13:47:21;;;;;;;1.55;0.60;;;;;;;;;;4997961;28;20128;-63
2023/07/02 13:49:48;;;;;;;1.77;0.55;;;;;;;;;;4999006;28;20478;-64
2023/07/02 13:52:17;;;;;;;3.38;0.60;;;;;;;;;;4996848;28;20042;-64
2023/07/02 13:54:44;;;;;;;1.02;0.40;;;;;;;;;;4992009;28;20046;-65
2023/07/02 13:57:10;;;;;;;3.20;0.73;;;;;;;;;;4985701;28;20033;-63
2023/07/02 13:59:37;;;;;;;1.40;0.50;;;;;;;;;;4996081;28;20045;-64
2023/07/02 14:02:04;;;;;;;2.65;0.68;;;;;;;;;;4992844;28;20042;-64
2023/07/02 14:04:30;;;;;;;2.15;0.65;;;;;;;;;;4995160;28;20038;-64
2023/07/02 14:06:57;;;;;;;1.98;0.50;;;;;;;;;;4995689;28;20046;-64
2023/07/02 14:09:24;;;;;;;1.90;0.60;;;;;;;;;;4998267;28;20116;-64
2023/07/02 14:11:50;;;;;;;2.28;0.57;;;;;;;;;;5000483;28;20498;-64
2023/07/02 14:14:17;;;;;;;1.67;0.60;;;;;;;;;;4995600;28;20096;-64
2023/07/02 14:16:44;;;;;;;1.17;0.40;;;;;;;;;;4994893;28;20186;-64
2023/07/02 14:19:12;;;;;;;1.60;0.45;;;;;;;;;;4994933;28;20096;-64
2023/07/02 14:21:39;;;;;;;1.50;0.47;;;;;;;;;;4994245;28;20053;-65
2023/07/02 14:24:07;;;;;;;1.73;0.50;;;;;;;;;;4997693;28;20164;-64
2023/07/02 14:26:34;;;;;;;1.67;0.60;;;;;;;;;;4994924;28;20172;-65
2023/07/02 14:29:01;;;;;;;2.65;0.82;;;;;;;;;;4995526;28;20409;-65
2023/07/02 14:31:27;;;;;;;3.92;1.10;;;;;;;;;;4995171;28;20068;-66
2023/07/02 14:33:54;;;;;;;1.27;0.50;;;;;;;;;;4993882;28;20045;-65
2023/07/02 14:36:21;;;;;;;2.13;0.60;;;;;;;;;;4994652;28;20045;-65
2023/07/02 14:38:47;;;;;;;3.60;0.85;;;;;;;;;;4985187;28;20248;-65
2023/07/02 14:41:14;;;;;;;1.38;0.50;;;;;;;;;;4995744;28;20049;-64
2023/07/02 14:43:41;;;;;;;1.27;0.47;;;;;;;;;;4995920;28;20050;-66